sensor_id;sensor_type;location;lat;lon;timestamp;P1;durP1;ratioP1;P2;durP2;ratioP2
21643;SDS011;10983;51.982;9.226;2023-06-26T00:01:43;0.10;;;0.10;;
21643;SDS011;10983;51.982;9.226;2023-06-26T00:04:11;0.20;;;0.20;;
21643;SDS011;10983;51.982;9.226;2023-06-26T00:06:40;0.13;;;0.13;;
21643;SDS011;10983;51.982;9.226;2023-06-26T00:09:09;0.00;;;0.00;;
21643;SDS011;10983;51.982;9.226;2023-06-26T00:11:39;0.00;;;0.00;;
21643;SDS011;10983;51.982;9.226;2023-06-26T00:14:06;0.20;;;0.20;;
21643;SDS011;10983;51.982;9.226;2023-06-26T00:16:35;0.57;;;0.57;;
21643;SDS011;10983;51.982;9.226;2023-06-26T00:19:03;0.00;;;0.00;;
21643;SDS011;10983;51.982;9.226;2023-06-26T00:21:30;0.40;;;0.40;;
21643;SDS011;10983;51.982;9.226;2023-06-26T00:23:58;0.28;;;0.28;;
21643;SDS011;10983;51.982;9.226;2023-06-26T00:26:25;0.00;;;0.00;;
21643;SDS011;10983;51.982;9.226;2023-06-26T00:28:53;0.05;;;0.05;;
21643;SDS011;10983;51.982;9.226;2023-06-26T00:31:21;0.73;;;0.73;;
21643;SDS011;10983;51.982;9.226;2023-06-26T00:33:50;0.00;;;0.00;;
21643;SDS011;10983;51.982;9.226;2023-06-26T00:36:17;0.00;;;0.00;;
21643;SDS011;10983;51.982;9.226;2023-06-26T00:38:44;1.75;;;1.35;;
21643;SDS011;10983;51.982;9.226;2023-06-26T00:41:12;0.80;;;0.80;;
21643;SDS011;10983;51.982;9.226;2023-06-26T00:43:39;0.00;;;0.00;;
21643;SDS011;10983;51.982;9.226;2023-06-26T00:46:09;0.30;;;0.30;;
21643;SDS011;10983;51.982;9.226;2023-06-26T00:48:39;0.00;;;0.00;;
21643;SDS011;10983;51.982;9.226;2023-06-26T00:51:12;0.00;;;0.00;;
21643;SDS011;10983;51.982;9.226;2023-06-26T00:53:40;0.00;;;0.00;;
21643;SDS011;10983;51.982;9.226;2023-06-26T00:56:09;0.00;;;0.00;;
21643;SDS011;10983;51.982;9.226;2023-06-26T00:58:37;0.00;;;0.00;;
21643;SDS011;10983;51.982;9.226;2023-06-26T01:01:04;0.20;;;0.20;;
21643;SDS011;10983;51.982;9.226;2023-06-26T01:03:35;0.45;;;0.30;;
21643;SDS011;10983;51.982;9.226;2023-06-26T01:06:05;0.00;;;0.00;;
21643;SDS011;10983;51.982;9.226;2023-06-26T01:08:34;0.00;;;0.00;;
21643;SDS011;10983;51.982;9.226;2023-06-26T01:11:02;0.57;;;0.57;;
21643;SDS011;10983;51.982;9.226;2023-06-26T01:13:29;0.00;;;0.00;;
21643;SDS011;10983;51.982;9.226;2023-06-26T01:15:58;0.00;;;0.00;;
21643;SDS011;10983;51.982;9.226;2023-06-26T01:18:26;0.00;;;0.00;;
21643;SDS011;10983;51.982;9.226;2023-06-26T01:20:54;1.80;;;1.65;;
21643;SDS011;10983;51.982;9.226;2023-06-26T01:23:29;0.00;;;0.00;;
21643;SDS011;10983;51.982;9.226;2023-06-26T01:26:08;0.00;;;0.00;;
21643;SDS011;10983;51.982;9.226;2023-06-26T01:31:17;0.20;;;0.20;;
21643;SDS011;10983;51.982;9.226;2023-06-26T01:33:48;0.00;;;0.00;;
21643;SDS011;10983;51.982;9.226;2023-06-26T01:36:16;0.00;;;0.00;;
21643;SDS011;10983;51.982;9.226;2023-06-26T01:38:44;0.75;;;0.75;;
21643;SDS011;10983;51.982;9.226;2023-06-26T01:41:13;0.00;;;0.00;;
21643;SDS011;10983;51.982;9.226;2023-06-26T01:43:54;0.25;;;0.25;;
21643;SDS011;10983;51.982;9.226;2023-06-26T01:46:33;1.65;;;1.55;;
21643;SDS011;10983;51.982;9.226;2023-06-26T01:49:09;0.20;;;0.20;;
21643;SDS011;10983;51.982;9.226;2023-06-26T01:51:42;3.67;;;0.75;;
21643;SDS011;10983;51.982;9.226;2023-06-26T01:54:25;1.33;;;1.23;;
21643;SDS011;10983;51.982;9.226;2023-06-26T01:57:00;0.32;;;0.32;;
21643;SDS011;10983;51.982;9.226;2023-06-26T01:59:29;0.65;;;0.65;;
21643;SDS011;10983;51.982;9.226;2023-06-26T02:02:00;0.10;;;0.10;;
21643;SDS011;10983;51.982;9.226;2023-06-26T02:04:27;0.00;;;0.00;;
21643;SDS011;10983;51.982;9.226;2023-06-26T02:06:55;0.00;;;0.00;;
21643;SDS011;10983;51.982;9.226;2023-06-26T02:09:23;0.05;;;0.05;;
21643;SDS011;10983;51.982;9.226;2023-06-26T02:11:50;0.00;;;0.00;;
21643;SDS011;10983;51.982;9.226;2023-06-26T02:14:19;0.22;;;0.22;;
21643;SDS011;10983;51.982;9.226;2023-06-26T02:16:46;0.75;;;0.75;;
21643;SDS011;10983;51.982;9.226;2023-06-26T02:19:14;1.50;;;0.35;;
21643;SDS011;10983;51.982;9.226;2023-06-26T02:21:47;0.00;;;0.00;;
21643;SDS011;10983;51.982;9.226;2023-06-26T02:24:17;0.00;;;0.00;;
21643;SDS011;10983;51.982;9.226;2023-06-26T02:26:45;0.00;;;0.00;;
21643;SDS011;10983;51.982;9.226;2023-06-26T02:29:12;0.00;;;0.00;;
21643;SDS011;10983;51.982;9.226;2023-06-26T02:31:41;0.73;;;0.73;;
21643;SDS011;10983;51.982;9.226;2023-06-26T02:34:09;0.00;;;0.00;;
21643;SDS011;10983;51.982;9.226;2023-06-26T02:36:37;0.47;;;0.47;;
21643;SDS011;10983;51.982;9.226;2023-06-26T02:39:05;0.20;;;0.20;;
21643;SDS011;10983;51.982;9.226;2023-06-26T02:41:33;0.28;;;0.28;;
21643;SDS011;10983;51.982;9.226;2023-06-26T02:44:00;0.10;;;0.10;;
21643;SDS011;10983;51.982;9.226;2023-06-26T02:46:28;0.10;;;0.10;;
21643;SDS011;10983;51.982;9.226;2023-06-26T02:48:56;0.65;;;0.65;;
21643;SDS011;10983;51.982;9.226;2023-06-26T02:51:24;2.05;;;0.55;;
21643;SDS011;10983;51.982;9.226;2023-06-26T02:53:51;0.08;;;0.08;;
21643;SDS011;10983;51.982;9.226;2023-06-26T02:56:19;0.08;;;0.08;;
21643;SDS011;10983;51.982;9.226;2023-06-26T02:58:46;0.08;;;0.08;;
21643;SDS011;10983;51.982;9.226;2023-06-26T03:01:14;0.00;;;0.00;;
21643;SDS011;10983;51.982;9.226;2023-06-26T03:03:44;0.10;;;0.10;;
21643;SDS011;10983;51.982;9.226;2023-06-26T03:06:15;0.00;;;0.00;;
21643;SDS011;10983;51.982;9.226;2023-06-26T03:08:43;0.00;;;0.00;;
21643;SDS011;10983;51.982;9.226;2023-06-26T03:11:10;0.00;;;0.00;;
21643;SDS011;10983;51.982;9.226;2023-06-26T03:13:38;0.03;;;0.03;;
21643;SDS011;10983;51.982;9.226;2023-06-26T03:16:05;0.00;;;0.00;;
21643;SDS011;10983;51.982;9.226;2023-06-26T03:18:33;0.10;;;0.10;;
21643;SDS011;10983;51.982;9.226;2023-06-26T03:21:00;0.20;;;0.20;;
21643;SDS011;10983;51.982;9.226;2023-06-26T03:23:29;0.00;;;0.00;;
21643;SDS011;10983;51.982;9.226;2023-06-26T03:25:56;0.85;;;0.85;;
21643;SDS011;10983;51.982;9.226;2023-06-26T03:28:24;0.00;;;0.00;;
21643;SDS011;10983;51.982;9.226;2023-06-26T03:30:51;0.00;;;0.00;;
21643;SDS011;10983;51.982;9.226;2023-06-26T03:33:19;0.00;;;0.00;;
21643;SDS011;10983;51.982;9.226;2023-06-26T03:35:46;0.00;;;0.00;;
21643;SDS011;10983;51.982;9.226;2023-06-26T03:38:14;0.00;;;0.00;;
21643;SDS011;10983;51.982;9.226;2023-06-26T03:40:42;0.00;;;0.00;;
21643;SDS011;10983;51.982;9.226;2023-06-26T03:43:10;0.00;;;0.00;;
21643;SDS011;10983;51.982;9.226;2023-06-26T03:45:37;0.00;;;0.00;;
21643;SDS011;10983;51.982;9.226;2023-06-26T03:48:05;0.47;;;0.40;;
21643;SDS011;10983;51.982;9.226;2023-06-26T03:50:34;0.00;;;0.00;;
21643;SDS011;10983;51.982;9.226;2023-06-26T03:53:01;0.00;;;0.00;;
21643;SDS011;10983;51.982;9.226;2023-06-26T03:55:29;0.00;;;0.00;;
21643;SDS011;10983;51.982;9.226;2023-06-26T03:57:58;0.00;;;0.00;;
21643;SDS011;10983;51.982;9.226;2023-06-26T04:00:25;0.00;;;0.00;;
21643;SDS011;10983;51.982;9.226;2023-06-26T04:02:53;0.00;;;0.00;;
21643;SDS011;10983;51.982;9.226;2023-06-26T04:05:21;0.55;;;0.55;;
21643;SDS011;10983;51.982;9.226;2023-06-26T04:07:50;0.00;;;0.00;;
21643;SDS011;10983;51.982;9.226;2023-06-26T04:10:17;0.00;;;0.00;;
21643;SDS011;10983;51.982;9.226;2023-06-26T04:12:46;0.00;;;0.00;;
21643;SDS011;10983;51.982;9.226;2023-06-26T04:15:15;0.00;;;0.00;;
21643;SDS011;10983;51.982;9.226;2023-06-26T04:17:43;0.32;;;0.32;;
21643;SDS011;10983;51.982;9.226;2023-06-26T04:20:10;0.00;;;0.00;;
21643;SDS011;10983;51.982;9.226;2023-06-26T04:22:38;0.00;;;0.00;;
21643;SDS011;10983;51.982;9.226;2023-06-26T04:25:05;0.00;;;0.00;;
21643;SDS011;10983;51.982;9.226;2023-06-26T04:27:33;0.20;;;0.20;;
21643;SDS011;10983;51.982;9.226;2023-06-26T04:30:03;0.00;;;0.00;;
21643;SDS011;10983;51.982;9.226;2023-06-26T04:32:33;0.00;;;0.00;;
21643;SDS011;10983;51.982;9.226;2023-06-26T04:35:01;0.00;;;0.00;;
21643;SDS011;10983;51.982;9.226;2023-06-26T04:37:29;0.00;;;0.00;;
21643;SDS011;10983;51.982;9.226;2023-06-26T04:39:56;0.30;;;0.30;;
21643;SDS011;10983;51.982;9.226;2023-06-26T04:42:24;0.00;;;0.00;;
21643;SDS011;10983;51.982;9.226;2023-06-26T04:44:51;0.00;;;0.00;;
21643;SDS011;10983;51.982;9.226;2023-06-26T04:47:19;0.22;;;0.22;;
21643;SDS011;10983;51.982;9.226;2023-06-26T04:49:47;0.30;;;0.30;;
21643;SDS011;10983;51.982;9.226;2023-06-26T04:52:15;2.13;;;0.80;;
21643;SDS011;10983;51.982;9.226;2023-06-26T04:54:42;0.00;;;0.00;;
21643;SDS011;10983;51.982;9.226;2023-06-26T04:57:10;0.30;;;0.30;;
21643;SDS011;10983;51.982;9.226;2023-06-26T04:59:38;0.00;;;0.00;;
21643;SDS011;10983;51.982;9.226;2023-06-26T05:02:05;0.13;;;0.13;;
21643;SDS011;10983;51.982;9.226;2023-06-26T05:04:33;0.00;;;0.00;;
21643;SDS011;10983;51.982;9.226;2023-06-26T05:07:02;0.05;;;0.05;;
21643;SDS011;10983;51.982;9.226;2023-06-26T05:09:31;0.65;;;0.55;;
21643;SDS011;10983;51.982;9.226;2023-06-26T05:11:58;0.00;;;0.00;;
21643;SDS011;10983;51.982;9.226;2023-06-26T05:14:26;1.45;;;1.35;;
21643;SDS011;10983;51.982;9.226;2023-06-26T05:16:54;0.00;;;0.00;;
21643;SDS011;10983;51.982;9.226;2023-06-26T05:19:21;0.00;;;0.00;;
21643;SDS011;10983;51.982;9.226;2023-06-26T05:21:49;0.50;;;0.50;;
21643;SDS011;10983;51.982;9.226;2023-06-26T05:24:19;0.00;;;0.00;;
21643;SDS011;10983;51.982;9.226;2023-06-26T05:26:50;0.65;;;0.30;;
21643;SDS011;10983;51.982;9.226;2023-06-26T05:29:18;0.00;;;0.00;;
21643;SDS011;10983;51.982;9.226;2023-06-26T05:31:46;0.00;;;0.00;;
21643;SDS011;10983;51.982;9.226;2023-06-26T05:34:15;0.00;;;0.00;;
21643;SDS011;10983;51.982;9.226;2023-06-26T05:36:44;0.00;;;0.00;;
21643;SDS011;10983;51.982;9.226;2023-06-26T05:39:13;0.00;;;0.00;;
21643;SDS011;10983;51.982;9.226;2023-06-26T05:41:43;0.10;;;0.10;;
21643;SDS011;10983;51.982;9.226;2023-06-26T05:44:11;1.25;;;1.25;;
21643;SDS011;10983;51.982;9.226;2023-06-26T05:46:38;0.47;;;0.47;;
21643;SDS011;10983;51.982;9.226;2023-06-26T05:49:06;2.90;;;1.00;;
21643;SDS011;10983;51.982;9.226;2023-06-26T05:51:33;0.40;;;0.40;;
21643;SDS011;10983;51.982;9.226;2023-06-26T05:54:01;0.00;;;0.00;;
21643;SDS011;10983;51.982;9.226;2023-06-26T05:56:29;0.70;;;0.70;;
21643;SDS011;10983;51.982;9.226;2023-06-26T05:58:59;0.57;;;0.57;;
21643;SDS011;10983;51.982;9.226;2023-06-26T06:01:27;0.20;;;0.20;;
21643;SDS011;10983;51.982;9.226;2023-06-26T06:03:55;0.00;;;0.00;;
21643;SDS011;10983;51.982;9.226;2023-06-26T06:06:22;0.00;;;0.00;;
21643;SDS011;10983;51.982;9.226;2023-06-26T06:08:50;0.10;;;0.10;;
21643;SDS011;10983;51.982;9.226;2023-06-26T06:11:17;0.20;;;0.20;;
21643;SDS011;10983;51.982;9.226;2023-06-26T06:13:45;0.00;;;0.00;;
21643;SDS011;10983;51.982;9.226;2023-06-26T06:16:15;0.10;;;0.10;;
21643;SDS011;10983;51.982;9.226;2023-06-26T06:18:42;0.05;;;0.05;;
21643;SDS011;10983;51.982;9.226;2023-06-26T06:21:10;0.43;;;0.43;;
21643;SDS011;10983;51.982;9.226;2023-06-26T06:23:37;0.00;;;0.00;;
21643;SDS011;10983;51.982;9.226;2023-06-26T06:26:05;0.85;;;0.85;;
21643;SDS011;10983;51.982;9.226;2023-06-26T06:28:32;0.00;;;0.00;;
21643;SDS011;10983;51.982;9.226;2023-06-26T06:31:00;0.20;;;0.20;;
21643;SDS011;10983;51.982;9.226;2023-06-26T06:33:29;0.00;;;0.00;;
21643;SDS011;10983;51.982;9.226;2023-06-26T06:35:56;0.38;;;0.38;;
21643;SDS011;10983;51.982;9.226;2023-06-26T06:38:26;0.30;;;0.30;;
21643;SDS011;10983;51.982;9.226;2023-06-26T06:40:56;0.00;;;0.00;;
21643;SDS011;10983;51.982;9.226;2023-06-26T06:43:23;0.15;;;0.15;;
21643;SDS011;10983;51.982;9.226;2023-06-26T06:45:51;1.60;;;1.50;;
21643;SDS011;10983;51.982;9.226;2023-06-26T06:48:18;1.55;;;0.65;;
21643;SDS011;10983;51.982;9.226;2023-06-26T06:50:48;0.55;;;0.55;;
21643;SDS011;10983;51.982;9.226;2023-06-26T06:53:18;1.30;;;0.95;;
21643;SDS011;10983;51.982;9.226;2023-06-26T06:55:47;1.67;;;1.58;;
21643;SDS011;10983;51.982;9.226;2023-06-26T06:58:16;0.47;;;0.47;;
21643;SDS011;10983;51.982;9.226;2023-06-26T07:00:45;1.77;;;1.27;;
21643;SDS011;10983;51.982;9.226;2023-06-26T07:03:12;2.70;;;2.45;;
21643;SDS011;10983;51.982;9.226;2023-06-26T07:05:41;0.52;;;0.52;;
21643;SDS011;10983;51.982;9.226;2023-06-26T07:08:12;1.10;;;0.98;;
21643;SDS011;10983;51.982;9.226;2023-06-26T07:10:40;0.90;;;0.90;;
21643;SDS011;10983;51.982;9.226;2023-06-26T07:13:08;1.52;;;1.42;;
21643;SDS011;10983;51.982;9.226;2023-06-26T07:15:35;2.78;;;1.58;;
21643;SDS011;10983;51.982;9.226;2023-06-26T07:18:03;2.42;;;1.98;;
21643;SDS011;10983;51.982;9.226;2023-06-26T07:20:30;2.75;;;2.42;;
21643;SDS011;10983;51.982;9.226;2023-06-26T07:22:59;1.80;;;1.70;;
21643;SDS011;10983;51.982;9.226;2023-06-26T07:25:28;2.53;;;2.33;;
21643;SDS011;10983;51.982;9.226;2023-06-26T07:27:56;0.10;;;0.10;;
21643;SDS011;10983;51.982;9.226;2023-06-26T07:30:23;2.63;;;1.60;;
21643;SDS011;10983;51.982;9.226;2023-06-26T07:32:51;1.80;;;1.70;;
21643;SDS011;10983;51.982;9.226;2023-06-26T07:35:18;1.17;;;1.05;;
21643;SDS011;10983;51.982;9.226;2023-06-26T07:37:46;1.35;;;0.90;;
21643;SDS011;10983;51.982;9.226;2023-06-26T07:40:14;2.15;;;1.65;;
21643;SDS011;10983;51.982;9.226;2023-06-26T07:42:46;1.95;;;1.85;;
21643;SDS011;10983;51.982;9.226;2023-06-26T07:45:14;3.75;;;3.40;;
21643;SDS011;10983;51.982;9.226;2023-06-26T07:47:41;3.00;;;2.80;;
21643;SDS011;10983;51.982;9.226;2023-06-26T07:50:10;3.10;;;2.20;;
21643;SDS011;10983;51.982;9.226;2023-06-26T07:52:37;3.28;;;2.03;;
21643;SDS011;10983;51.982;9.226;2023-06-26T07:55:05;5.97;;;3.15;;
21643;SDS011;10983;51.982;9.226;2023-06-26T07:57:33;2.28;;;2.00;;
21643;SDS011;10983;51.982;9.226;2023-06-26T08:00:04;3.38;;;2.80;;
21643;SDS011;10983;51.982;9.226;2023-06-26T08:02:33;4.93;;;1.85;;
21643;SDS011;10983;51.982;9.226;2023-06-26T08:05:01;4.40;;;2.70;;
21643;SDS011;10983;51.982;9.226;2023-06-26T08:07:28;2.63;;;2.08;;
21643;SDS011;10983;51.982;9.226;2023-06-26T08:09:56;1.63;;;1.52;;
21643;SDS011;10983;51.982;9.226;2023-06-26T08:12:31;2.60;;;2.40;;
21643;SDS011;10983;51.982;9.226;2023-06-26T08:14:58;2.67;;;2.47;;
21643;SDS011;10983;51.982;9.226;2023-06-26T08:17:30;6.38;;;4.85;;
21643;SDS011;10983;51.982;9.226;2023-06-26T08:19:57;0.88;;;0.88;;
21643;SDS011;10983;51.982;9.226;2023-06-26T08:22:25;3.83;;;3.35;;
21643;SDS011;10983;51.982;9.226;2023-06-26T08:24:52;4.93;;;3.13;;
21643;SDS011;10983;51.982;9.226;2023-06-26T08:27:20;6.95;;;4.53;;
21643;SDS011;10983;51.982;9.226;2023-06-26T08:29:47;12.60;;;4.57;;
21643;SDS011;10983;51.982;9.226;2023-06-26T08:32:15;7.22;;;4.47;;
21643;SDS011;10983;51.982;9.226;2023-06-26T08:34:44;5.28;;;4.15;;
21643;SDS011;10983;51.982;9.226;2023-06-26T08:37:14;2.33;;;2.17;;
21643;SDS011;10983;51.982;9.226;2023-06-26T08:39:42;11.65;;;3.90;;
21643;SDS011;10983;51.982;9.226;2023-06-26T08:42:09;2.03;;;1.83;;
21643;SDS011;10983;51.982;9.226;2023-06-26T08:44:37;3.92;;;2.90;;
21643;SDS011;10983;51.982;9.226;2023-06-26T08:47:24;5.38;;;3.20;;
21643;SDS011;10983;51.982;9.226;2023-06-26T08:49:56;4.47;;;3.22;;
21643;SDS011;10983;51.982;9.226;2023-06-26T08:52:33;4.63;;;3.70;;
21643;SDS011;10983;51.982;9.226;2023-06-26T08:55:10;5.00;;;4.53;;
21643;SDS011;10983;51.982;9.226;2023-06-26T08:57:39;2.88;;;2.42;;
21643;SDS011;10983;51.982;9.226;2023-06-26T09:00:08;5.18;;;4.25;;
21643;SDS011;10983;51.982;9.226;2023-06-26T09:02:39;4.50;;;4.10;;
21643;SDS011;10983;51.982;9.226;2023-06-26T09:05:13;2.25;;;2.05;;
21643;SDS011;10983;51.982;9.226;2023-06-26T09:07:40;4.85;;;3.22;;
21643;SDS011;10983;51.982;9.226;2023-06-26T09:10:08;2.45;;;2.15;;
21643;SDS011;10983;51.982;9.226;2023-06-26T09:12:37;9.88;;;4.63;;
21643;SDS011;10983;51.982;9.226;2023-06-26T09:15:06;5.88;;;4.13;;
21643;SDS011;10983;51.982;9.226;2023-06-26T09:17:38;7.38;;;4.53;;
21643;SDS011;10983;51.982;9.226;2023-06-26T09:20:09;4.57;;;3.65;;
21643;SDS011;10983;51.982;9.226;2023-06-26T09:22:40;3.53;;;3.22;;
21643;SDS011;10983;51.982;9.226;2023-06-26T09:25:09;1.48;;;1.38;;
21643;SDS011;10983;51.982;9.226;2023-06-26T09:27:37;7.93;;;3.38;;
21643;SDS011;10983;51.982;9.226;2023-06-26T09:30:05;4.10;;;2.83;;
21643;SDS011;10983;51.982;9.226;2023-06-26T09:32:34;8.00;;;3.70;;
21643;SDS011;10983;51.982;9.226;2023-06-26T09:35:02;2.28;;;1.98;;
21643;SDS011;10983;51.982;9.226;2023-06-26T09:37:31;15.05;;;5.68;;
21643;SDS011;10983;51.982;9.226;2023-06-26T09:40:02;7.20;;;4.15;;
21643;SDS011;10983;51.982;9.226;2023-06-26T09:42:31;5.85;;;4.50;;
21643;SDS011;10983;51.982;9.226;2023-06-26T09:44:58;4.68;;;4.28;;
21643;SDS011;10983;51.982;9.226;2023-06-26T09:47:29;7.78;;;5.70;;
21643;SDS011;10983;51.982;9.226;2023-06-26T09:49:58;5.38;;;4.35;;
21643;SDS011;10983;51.982;9.226;2023-06-26T09:52:26;3.75;;;3.40;;
21643;SDS011;10983;51.982;9.226;2023-06-26T09:55:08;4.10;;;3.78;;
21643;SDS011;10983;51.982;9.226;2023-06-26T09:57:35;3.15;;;2.70;;
21643;SDS011;10983;51.982;9.226;2023-06-26T10:00:03;7.53;;;2.97;;
21643;SDS011;10983;51.982;9.226;2023-06-26T10:02:31;6.57;;;3.50;;
21643;SDS011;10983;51.982;9.226;2023-06-26T10:04:59;9.00;;;3.08;;
21643;SDS011;10983;51.982;9.226;2023-06-26T10:07:27;8.32;;;5.00;;
21643;SDS011;10983;51.982;9.226;2023-06-26T10:09:56;1.20;;;1.17;;
21643;SDS011;10983;51.982;9.226;2023-06-26T10:12:29;7.32;;;5.60;;
21643;SDS011;10983;51.982;9.226;2023-06-26T10:14:57;5.88;;;4.78;;
21643;SDS011;10983;51.982;9.226;2023-06-26T10:17:28;2.65;;;2.38;;
21643;SDS011;10983;51.982;9.226;2023-06-26T10:20:00;1.33;;;1.20;;
21643;SDS011;10983;51.982;9.226;2023-06-26T10:22:32;4.85;;;2.40;;
21643;SDS011;10983;51.982;9.226;2023-06-26T10:25:03;4.78;;;2.97;;
21643;SDS011;10983;51.982;9.226;2023-06-26T10:27:35;4.93;;;3.30;;
21643;SDS011;10983;51.982;9.226;2023-06-26T10:30:06;3.38;;;3.08;;
21643;SDS011;10983;51.982;9.226;2023-06-26T10:32:39;5.28;;;4.47;;
21643;SDS011;10983;51.982;9.226;2023-06-26T10:35:08;4.90;;;1.98;;
21643;SDS011;10983;51.982;9.226;2023-06-26T10:37:41;5.38;;;4.88;;
21643;SDS011;10983;51.982;9.226;2023-06-26T10:40:10;3.70;;;1.70;;
21643;SDS011;10983;51.982;9.226;2023-06-26T10:42:39;4.53;;;2.38;;
21643;SDS011;10983;51.982;9.226;2023-06-26T10:45:13;3.10;;;2.80;;
21643;SDS011;10983;51.982;9.226;2023-06-26T10:47:46;4.35;;;3.58;;
21643;SDS011;10983;51.982;9.226;2023-06-26T10:50:22;5.67;;;4.60;;
21643;SDS011;10983;51.982;9.226;2023-06-26T10:53:07;6.30;;;4.68;;
21643;SDS011;10983;51.982;9.226;2023-06-26T10:55:41;2.83;;;1.98;;
21643;SDS011;10983;51.982;9.226;2023-06-26T11:01:18;3.47;;;3.17;;
21643;SDS011;10983;51.982;9.226;2023-06-26T11:04:00;7.13;;;1.95;;
21643;SDS011;10983;51.982;9.226;2023-06-26T11:06:31;4.60;;;3.47;;
21643;SDS011;10983;51.982;9.226;2023-06-26T11:09:00;2.92;;;2.05;;
21643;SDS011;10983;51.982;9.226;2023-06-26T11:14:32;2.67;;;2.30;;
21643;SDS011;10983;51.982;9.226;2023-06-26T11:17:05;10.75;;;5.35;;
21643;SDS011;10983;51.982;9.226;2023-06-26T11:22:03;3.08;;;2.05;;
21643;SDS011;10983;51.982;9.226;2023-06-26T11:24:32;5.27;;;2.07;;
21643;SDS011;10983;51.982;9.226;2023-06-26T11:27:01;17.80;;;3.03;;
21643;SDS011;10983;51.982;9.226;2023-06-26T11:29:31;3.10;;;2.80;;
21643;SDS011;10983;51.982;9.226;2023-06-26T11:32:01;4.30;;;2.90;;
21643;SDS011;10983;51.982;9.226;2023-06-26T11:34:32;6.53;;;2.03;;
21643;SDS011;10983;51.982;9.226;2023-06-26T11:37:00;7.25;;;4.88;;
21643;SDS011;10983;51.982;9.226;2023-06-26T11:39:29;3.95;;;2.25;;
21643;SDS011;10983;51.982;9.226;2023-06-26T11:41:57;16.63;;;3.55;;
21643;SDS011;10983;51.982;9.226;2023-06-26T11:44:29;6.22;;;2.58;;
21643;SDS011;10983;51.982;9.226;2023-06-26T11:46:59;2.00;;;1.67;;
21643;SDS011;10983;51.982;9.226;2023-06-26T11:49:29;10.55;;;3.58;;
21643;SDS011;10983;51.982;9.226;2023-06-26T11:51:56;3.22;;;1.95;;
21643;SDS011;10983;51.982;9.226;2023-06-26T11:54:26;2.78;;;1.90;;
21643;SDS011;10983;51.982;9.226;2023-06-26T11:56:54;2.33;;;2.20;;
21643;SDS011;10983;51.982;9.226;2023-06-26T11:59:24;1.58;;;1.50;;
21643;SDS011;10983;51.982;9.226;2023-06-26T12:01:59;0.65;;;0.65;;
21643;SDS011;10983;51.982;9.226;2023-06-26T12:04:29;3.65;;;2.50;;
21643;SDS011;10983;51.982;9.226;2023-06-26T12:06:57;7.18;;;3.38;;
21643;SDS011;10983;51.982;9.226;2023-06-26T12:09:25;4.15;;;2.70;;
21643;SDS011;10983;51.982;9.226;2023-06-26T12:11:54;3.42;;;2.28;;
21643;SDS011;10983;51.982;9.226;2023-06-26T12:14:23;1.45;;;1.35;;
21643;SDS011;10983;51.982;9.226;2023-06-26T12:16:54;4.55;;;3.08;;
21643;SDS011;10983;51.982;9.226;2023-06-26T12:19:25;2.15;;;1.58;;
21643;SDS011;10983;51.982;9.226;2023-06-26T12:21:53;4.05;;;3.55;;
21643;SDS011;10983;51.982;9.226;2023-06-26T12:24:23;7.47;;;3.75;;
21643;SDS011;10983;51.982;9.226;2023-06-26T12:26:52;1.27;;;1.13;;
21643;SDS011;10983;51.982;9.226;2023-06-26T12:29:28;0.57;;;0.57;;
21643;SDS011;10983;51.982;9.226;2023-06-26T12:31:56;1.60;;;1.50;;
21643;SDS011;10983;51.982;9.226;2023-06-26T12:34:26;1.58;;;1.30;;
21643;SDS011;10983;51.982;9.226;2023-06-26T12:36:59;0.73;;;0.73;;
21643;SDS011;10983;51.982;9.226;2023-06-26T12:39:44;2.35;;;0.93;;
21643;SDS011;10983;51.982;9.226;2023-06-26T12:42:13;4.15;;;1.73;;
21643;SDS011;10983;51.982;9.226;2023-06-26T12:44:41;3.58;;;2.03;;
21643;SDS011;10983;51.982;9.226;2023-06-26T12:47:10;4.30;;;2.47;;
21643;SDS011;10983;51.982;9.226;2023-06-26T12:49:41;0.68;;;0.68;;
21643;SDS011;10983;51.982;9.226;2023-06-26T12:52:10;1.38;;;1.27;;
21643;SDS011;10983;51.982;9.226;2023-06-26T12:54:40;1.48;;;1.38;;
21643;SDS011;10983;51.982;9.226;2023-06-26T12:57:09;2.08;;;1.98;;
21643;SDS011;10983;51.982;9.226;2023-06-26T12:59:37;2.50;;;1.65;;
21643;SDS011;10983;51.982;9.226;2023-06-26T13:02:05;2.10;;;1.13;;
21643;SDS011;10983;51.982;9.226;2023-06-26T13:04:34;1.00;;;0.82;;
21643;SDS011;10983;51.982;9.226;2023-06-26T13:07:04;0.77;;;0.52;;
21643;SDS011;10983;51.982;9.226;2023-06-26T13:09:34;2.28;;;1.60;;
21643;SDS011;10983;51.982;9.226;2023-06-26T13:12:03;1.55;;;1.25;;
21643;SDS011;10983;51.982;9.226;2023-06-26T13:14:33;1.40;;;1.30;;
21643;SDS011;10983;51.982;9.226;2023-06-26T13:17:01;1.38;;;0.82;;
21643;SDS011;10983;51.982;9.226;2023-06-26T13:19:31;2.63;;;1.63;;
21643;SDS011;10983;51.982;9.226;2023-06-26T13:22:01;2.95;;;1.40;;
21643;SDS011;10983;51.982;9.226;2023-06-26T13:24:30;9.90;;;1.20;;
21643;SDS011;10983;51.982;9.226;2023-06-26T13:26:58;0.60;;;0.60;;
21643;SDS011;10983;51.982;9.226;2023-06-26T13:29:25;1.65;;;1.33;;
21643;SDS011;10983;51.982;9.226;2023-06-26T13:31:53;0.28;;;0.28;;
21643;SDS011;10983;51.982;9.226;2023-06-26T13:34:23;0.95;;;0.90;;
21643;SDS011;10983;51.982;9.226;2023-06-26T13:36:54;0.50;;;0.50;;
21643;SDS011;10983;51.982;9.226;2023-06-26T13:39:26;4.40;;;1.38;;
21643;SDS011;10983;51.982;9.226;2023-06-26T13:41:55;2.10;;;1.95;;
21643;SDS011;10983;51.982;9.226;2023-06-26T13:44:23;0.88;;;0.73;;
21643;SDS011;10983;51.982;9.226;2023-06-26T13:47:06;2.28;;;1.70;;
21643;SDS011;10983;51.982;9.226;2023-06-26T13:49:35;3.65;;;2.78;;
21643;SDS011;10983;51.982;9.226;2023-06-26T13:52:03;2.25;;;1.00;;
21643;SDS011;10983;51.982;9.226;2023-06-26T13:54:31;1.02;;;1.00;;
21643;SDS011;10983;51.982;9.226;2023-06-26T13:57:00;1.15;;;0.93;;
21643;SDS011;10983;51.982;9.226;2023-06-26T13:59:30;2.65;;;0.73;;
21643;SDS011;10983;51.982;9.226;2023-06-26T14:01:57;2.42;;;1.38;;
21643;SDS011;10983;51.982;9.226;2023-06-26T14:04:26;1.20;;;1.10;;
21643;SDS011;10983;51.982;9.226;2023-06-26T14:06:53;0.60;;;0.60;;
21643;SDS011;10983;51.982;9.226;2023-06-26T14:09:21;12.30;;;2.20;;
21643;SDS011;10983;51.982;9.226;2023-06-26T14:11:48;12.13;;;1.50;;
21643;SDS011;10983;51.982;9.226;2023-06-26T14:14:17;1.70;;;1.02;;
21643;SDS011;10983;51.982;9.226;2023-06-26T14:16:45;4.43;;;0.88;;
21643;SDS011;10983;51.982;9.226;2023-06-26T14:19:17;7.28;;;2.65;;
21643;SDS011;10983;51.982;9.226;2023-06-26T14:21:45;1.65;;;1.55;;
21643;SDS011;10983;51.982;9.226;2023-06-26T14:24:13;1.85;;;0.63;;
21643;SDS011;10983;51.982;9.226;2023-06-26T14:26:40;0.40;;;0.40;;
21643;SDS011;10983;51.982;9.226;2023-06-26T14:29:07;0.80;;;0.80;;
21643;SDS011;10983;51.982;9.226;2023-06-26T14:31:36;0.35;;;0.35;;
21643;SDS011;10983;51.982;9.226;2023-06-26T14:34:04;1.92;;;1.60;;
21643;SDS011;10983;51.982;9.226;2023-06-26T14:36:32;0.75;;;0.35;;
21643;SDS011;10983;51.982;9.226;2023-06-26T14:39:04;0.80;;;0.80;;
21643;SDS011;10983;51.982;9.226;2023-06-26T14:41:32;0.70;;;0.68;;
21643;SDS011;10983;51.982;9.226;2023-06-26T14:44:00;1.00;;;0.98;;
21643;SDS011;10983;51.982;9.226;2023-06-26T14:46:28;4.15;;;2.17;;
21643;SDS011;10983;51.982;9.226;2023-06-26T14:48:57;4.05;;;1.65;;
21643;SDS011;10983;51.982;9.226;2023-06-26T14:51:25;1.13;;;1.08;;
21643;SDS011;10983;51.982;9.226;2023-06-26T14:53:53;1.15;;;0.95;;
21643;SDS011;10983;51.982;9.226;2023-06-26T14:56:20;4.40;;;0.63;;
21643;SDS011;10983;51.982;9.226;2023-06-26T14:58:47;0.77;;;0.77;;
21643;SDS011;10983;51.982;9.226;2023-06-26T15:01:15;0.63;;;0.63;;
21643;SDS011;10983;51.982;9.226;2023-06-26T15:03:42;1.30;;;1.30;;
21643;SDS011;10983;51.982;9.226;2023-06-26T15:06:11;0.95;;;0.80;;
21643;SDS011;10983;51.982;9.226;2023-06-26T15:08:39;1.20;;;0.88;;
21643;SDS011;10983;51.982;9.226;2023-06-26T15:11:06;2.30;;;1.73;;